Time;durP1;ratioP1;P1;durP2;ratioP2;P2;SDS_P1;SDS_P2;PMS_P1;PMS_P2;Temp;Humidity;BMP_temperature;BMP_pressure;BME280_temperature;BME280_humidity;BME280_pressure;Samples;Min_cycle;Max_cycle;Signal;HPM_P1;HPM_P2
2022/08/02 00:01:40;;;;;;;;;;;27.00;51.10;;;;;;4980030;28;19917;-68
2022/08/02 00:04:06;;;;;;;;;;;27.00;51.10;;;;;;4983025;28;20406;-68
2022/08/02 00:06:31;;;;;;;;;;;27.00;51.10;;;;;;4981132;28;19949;-68
2022/08/02 00:08:57;;;;;;;;;;;27.00;51.10;;;;;;4983030;28;19932;-69
2022/08/02 00:11:22;;;;;;;;;;;27.00;51.10;;;;;;4987228;28;19917;-68
2022/08/02 00:13:48;;;;;;;;;;;27.00;51.10;;;;;;4984292;28;19971;-68
2022/08/02 00:16:13;;;;;;;;;;;27.00;51.00;;;;;;4982940;28;19940;-68
2022/08/02 00:18:39;;;;;;;;;;;27.00;51.10;;;;;;4979672;28;20046;-68
2022/08/02 00:21:04;;;;;;;;;;;27.00;51.00;;;;;;4977763;28;19918;-69
2022/08/02 00:23:30;;;;;;;;;;;27.00;51.00;;;;;;4978738;28;19925;-68
2022/08/02 00:25:56;;;;;;;;;;;27.00;51.00;;;;;;4979522;28;20303;-68
2022/08/02 00:28:22;;;;;;;;;;;27.00;51.00;;;;;;4981520;28;20401;-68
2022/08/02 00:30:48;;;;;;;;;;;26.90;51.00;;;;;;4981295;28;20041;-68
2022/08/02 00:33:13;;;;;;;;;;;26.90;51.00;;;;;;4979197;28;19913;-67
2022/08/02 00:35:39;;;;;;;;;;;26.90;50.90;;;;;;4982387;28;20412;-67
2022/08/02 00:38:04;;;;;;;;;;;26.90;50.90;;;;;;4978464;28;19917;-69
2022/08/02 00:40:30;;;;;;;;;;;26.90;50.90;;;;;;4979438;28;20300;-68
2022/08/02 00:43:06;;;;;;;;;;;26.90;50.90;;;;;;4978121;28;19987;-67
2022/08/02 00:45:32;;;;;;;;;;;26.90;50.90;;;;;;4980187;28;19943;-67
2022/08/02 00:47:57;;;;;;;;;;;26.90;50.90;;;;;;4977950;28;20357;-68
2022/08/02 00:50:23;;;;;;;;;;;26.90;50.90;;;;;;4977662;28;20016;-70
2022/08/02 00:52:48;;;;;;;;;;;26.90;50.90;;;;;;4979692;28;19952;-68
2022/08/02 00:55:14;;;;;;;;;;;26.90;50.90;;;;;;4980369;28;19921;-68
2022/08/02 00:57:39;;;;;;;;;;;26.90;50.90;;;;;;4982542;28;20363;-67
2022/08/02 01:00:05;;;;;;;;;;;26.90;50.80;;;;;;4981352;28;19917;-70
2022/08/02 01:02:31;;;;;;;;;;;26.90;50.80;;;;;;4978556;28;19921;-69
2022/08/02 01:04:57;;;;;;;;;;;26.90;51.40;;;;;;4980039;28;20669;-68
2022/08/02 01:07:22;;;;;;;;;;;26.90;50.90;;;;;;4976620;28;21456;-68
2022/08/02 01:09:48;;;;;;;;;;;26.90;50.80;;;;;;4979181;28;19968;-68
2022/08/02 01:12:13;;;;;;;;;;;26.90;50.80;;;;;;4981385;28;20024;-68
2022/08/02 01:14:40;;;;;;;;;;;26.90;50.80;;;;;;4979276;28;19980;-68
2022/08/02 01:17:12;;;;;;;;;;;26.90;50.80;;;;;;4980084;28;20385;-67
2022/08/02 01:19:44;;;;;;;;;;;26.90;50.80;;;;;;4980430;28;21729;-68
2022/08/02 01:22:18;;;;;;;;;;;26.90;50.90;;;;;;4983813;28;20314;-70
2022/08/02 01:24:46;;;;;;;;;;;26.80;50.80;;;;;;4985019;28;19932;-67
2022/08/02 01:27:47;;;;;;;;;;;26.80;50.80;;;;;;4986472;28;19917;-68
2022/08/02 01:30:13;;;;;;;;;;;26.80;50.80;;;;;;4959272;28;19922;-68
2022/08/02 01:32:42;;;;;;;;;;;26.80;50.80;;;;;;4977695;28;20242;-68
2022/08/02 01:35:20;;;;;;;;;;;26.80;50.70;;;;;;4985096;28;19925;-69
2022/08/02 01:37:48;;;;;;;;;;;26.80;50.70;;;;;;4982070;28;19918;-70
2022/08/02 01:40:18;;;;;;;;;;;26.80;50.70;;;;;;4980055;28;20078;-68
2022/08/02 01:42:45;;;;;;;;;;;26.80;50.80;;;;;;4990421;28;20017;-69
2022/08/02 01:45:12;;;;;;;;;;;26.80;50.80;;;;;;4992864;28;20312;-69
2022/08/02 01:47:39;;;;;;;;;;;26.80;50.80;;;;;;4991610;28;19921;-68
2022/08/02 01:50:05;;;;;;;;;;;26.80;50.80;;;;;;4982966;28;19914;-70
2022/08/02 01:52:32;;;;;;;;;;;26.80;50.80;;;;;;4981278;28;19925;-68
2022/08/02 01:55:07;;;;;;;;;;;26.80;50.80;;;;;;4982608;28;20444;-68
2022/08/02 01:57:35;;;;;;;;;;;26.80;50.70;;;;;;4989981;28;19964;-68
2022/08/02 02:00:01;;;;;;;;;;;26.80;50.80;;;;;;4984241;28;19957;-68
2022/08/02 02:02:27;;;;;;;;;;;26.80;50.80;;;;;;4983144;28;19922;-70
2022/08/02 02:04:53;;;;;;;;;;;26.80;51.30;;;;;;4979976;28;20025;-68
2022/08/02 02:07:20;;;;;;;;;;;26.80;50.80;;;;;;4982658;28;20362;-67
2022/08/02 02:09:45;;;;;;;;;;;26.70;50.70;;;;;;4983191;28;20514;-67
2022/08/02 02:12:12;;;;;;;;;;;26.70;50.70;;;;;;4990882;28;20084;-70
2022/08/02 02:14:38;;;;;;;;;;;26.70;50.80;;;;;;4981062;28;19921;-70
2022/08/02 02:17:04;;;;;;;;;;;26.70;50.70;;;;;;4984124;28;20398;-68
2022/08/02 02:19:32;;;;;;;;;;;26.70;50.70;;;;;;4982306;28;20011;-68
2022/08/02 02:21:57;;;;;;;;;;;26.70;50.70;;;;;;4989749;28;19922;-68
2022/08/02 02:24:23;;;;;;;;;;;26.70;50.70;;;;;;4982741;28;19933;-68
2022/08/02 02:26:49;;;;;;;;;;;26.70;50.70;;;;;;4983211;28;19914;-67
2022/08/02 02:29:15;;;;;;;;;;;26.70;50.60;;;;;;4983940;28;19913;-70
2022/08/02 02:31:42;;;;;;;;;;;26.70;50.70;;;;;;4982047;28;19929;-68
2022/08/02 02:34:09;;;;;;;;;;;26.70;50.70;;;;;;4983844;28;20329;-68
2022/08/02 02:36:37;;;;;;;;;;;26.70;50.70;;;;;;4981836;28;20774;-67
2022/08/02 02:39:05;;;;;;;;;;;26.70;50.70;;;;;;4981343;28;19914;-68
2022/08/02 02:41:31;;;;;;;;;;;26.70;50.60;;;;;;4991318;28;19913;-68
2022/08/02 02:43:58;;;;;;;;;;;26.70;50.60;;;;;;4982545;28;20299;-70
2022/08/02 02:46:25;;;;;;;;;;;26.70;50.70;;;;;;4982560;28;19924;-69
2022/08/02 02:48:51;;;;;;;;;;;26.70;50.60;;;;;;4982706;28;19924;-69
2022/08/02 02:51:18;;;;;;;;;;;26.70;50.60;;;;;;4978986;28;19926;-68
2022/08/02 02:53:45;;;;;;;;;;;26.60;50.60;;;;;;4983171;28;19925;-67
2022/08/02 02:56:12;;;;;;;;;;;26.70;50.60;;;;;;4984459;28;20345;-68
2022/08/02 02:58:38;;;;;;;;;;;26.70;50.60;;;;;;4990238;28;20011;-68
2022/08/02 03:03:48;;;;;;;;;;;26.70;50.60;;;;;;4980149;28;20045;-68
2022/08/02 03:06:14;;;;;;;;;;;26.70;50.60;;;;;;4984454;28;20745;-68
2022/08/02 03:08:39;;;;;;;;;;;26.70;50.60;;;;;;4978870;28;19917;-71
2022/08/02 03:11:06;;;;;;;;;;;26.60;50.50;;;;;;4990169;28;19922;-68
2022/08/02 03:13:32;;;;;;;;;;;26.60;50.50;;;;;;4982043;28;20070;-67
2022/08/02 03:15:58;;;;;;;;;;;26.60;50.50;;;;;;4983154;28;20017;-68
2022/08/02 03:18:34;;;;;;;;;;;26.60;50.50;;;;;;4981727;28;19917;-67
2022/08/02 03:21:04;;;;;;;;;;;26.60;50.50;;;;;;4979674;28;19925;-68
2022/08/02 03:23:30;;;;;;;;;;;26.60;50.50;;;;;;4980018;28;19999;-68
2022/08/02 03:25:56;;;;;;;;;;;26.60;50.50;;;;;;4984546;28;19965;-69
2022/08/02 03:28:21;;;;;;;;;;;26.60;50.50;;;;;;4981800;28;19917;-68
2022/08/02 03:30:47;;;;;;;;;;;26.60;50.50;;;;;;4981782;28;20009;-68
2022/08/02 03:33:12;;;;;;;;;;;26.60;50.50;;;;;;4982888;28;19929;-68
2022/08/02 03:35:40;;;;;;;;;;;26.60;50.50;;;;;;4979807;28;20084;-67
2022/08/02 03:38:06;;;;;;;;;;;26.60;50.50;;;;;;4982369;28;19941;-69
2022/08/02 03:40:32;;;;;;;;;;;26.60;50.50;;;;;;4982271;28;19968;-68
2022/08/02 03:42:58;;;;;;;;;;;26.60;50.50;;;;;;4977621;28;19918;-67
2022/08/02 03:45:24;;;;;;;;;;;26.60;50.40;;;;;;4981631;28;19920;-68
2022/08/02 03:47:50;;;;;;;;;;;26.60;50.40;;;;;;4982513;28;20326;-68
2022/08/02 03:50:17;;;;;;;;;;;26.60;50.50;;;;;;4980240;28;19926;-68
2022/08/02 03:52:43;;;;;;;;;;;26.60;50.50;;;;;;4984279;28;20016;-70
2022/08/02 03:55:10;;;;;;;;;;;26.50;50.40;;;;;;4995132;28;19996;-68
2022/08/02 03:57:42;;;;;;;;;;;26.60;50.40;;;;;;4980482;28;19929;-70
2022/08/02 04:00:09;;;;;;;;;;;26.60;50.50;;;;;;4979925;28;19941;-69
2022/08/02 04:02:35;;;;;;;;;;;26.50;50.40;;;;;;4980680;28;20652;-68
2022/08/02 04:05:01;;;;;;;;;;;26.50;50.40;;;;;;4982446;28;19918;-70
2022/08/02 04:07:26;;;;;;;;;;;26.50;50.40;;;;;;4989297;28;20391;-69
2022/08/02 04:09:52;;;;;;;;;;;26.50;50.40;;;;;;4979009;28;19922;-68
2022/08/02 04:12:17;;;;;;;;;;;26.50;50.40;;;;;;4980223;28;19928;-68
2022/08/02 04:14:43;;;;;;;;;;;26.50;50.40;;;;;;4983445;28;20004;-68
2022/08/02 04:17:10;;;;;;;;;;;26.50;50.30;;;;;;4982067;28;19925;-67
2022/08/02 04:19:38;;;;;;;;;;;26.50;50.40;;;;;;4982880;28;20445;-70
2022/08/02 04:22:05;;;;;;;;;;;26.50;50.40;;;;;;4977046;28;19960;-71
2022/08/02 04:24:33;;;;;;;;;;;26.50;50.40;;;;;;4980524;28;19975;-68
2022/08/02 04:26:59;;;;;;;;;;;26.50;50.40;;;;;;4980620;28;20352;-65
2022/08/02 04:29:25;;;;;;;;;;;26.50;50.40;;;;;;4982413;28;19921;-65
2022/08/02 04:31:51;;;;;;;;;;;26.50;50.40;;;;;;4988652;28;20004;-67
2022/08/02 04:34:17;;;;;;;;;;;26.50;50.40;;;;;;4981300;28;20366;-66
2022/08/02 04:36:43;;;;;;;;;;;26.50;50.40;;;;;;4980914;28;19996;-65
2022/08/02 04:39:10;;;;;;;;;;;26.50;50.40;;;;;;4981106;28;19949;-65
2022/08/02 04:41:39;;;;;;;;;;;26.50;50.40;;;;;;4981035;28;19918;-65
2022/08/02 04:44:05;;;;;;;;;;;26.50;50.40;;;;;;4978106;28;19921;-65
2022/08/02 04:46:30;;;;;;;;;;;26.50;50.40;;;;;;4980675;28;19921;-67
2022/08/02 04:48:56;;;;;;;;;;;26.50;50.40;;;;;;4981492;28;20013;-65
2022/08/02 04:51:21;;;;;;;;;;;26.50;50.40;;;;;;4979165;28;20008;-66
2022/08/02 04:53:47;;;;;;;;;;;26.50;50.40;;;;;;4980883;28;20401;-65
2022/08/02 04:56:12;;;;;;;;;;;26.40;50.30;;;;;;4981360;28;19918;-66
2022/08/02 04:58:38;;;;;;;;;;;26.40;50.30;;;;;;4983704;28;19917;-66
2022/08/02 05:01:03;;;;;;;;;;;26.40;50.30;;;;;;4982681;28;20678;-70
2022/08/02 05:03:29;;;;;;;;;;;26.40;50.30;;;;;;4982539;28;19922;-68
2022/08/02 05:05:54;;;;;;;;;;;26.40;50.30;;;;;;4983370;28;19913;-71
2022/08/02 05:08:20;;;;;;;;;;;26.40;50.30;;;;;;4980219;28;20306;-67
2022/08/02 05:10:45;;;;;;;;;;;26.40;50.30;;;;;;4982272;28;20020;-69
2022/08/02 05:13:11;;;;;;;;;;;26.40;50.30;;;;;;4982911;28;21469;-69
2022/08/02 05:15:36;;;;;;;;;;;26.40;50.30;;;;;;4985845;28;19922;-70
2022/08/02 05:18:02;;;;;;;;;;;26.40;50.30;;;;;;4990456;28;20020;-67
2022/08/02 05:20:27;;;;;;;;;;;26.40;50.30;;;;;;4982192;28;19932;-67
2022/08/02 05:22:53;;;;;;;;;;;26.40;50.30;;;;;;4980775;28;20289;-67
2022/08/02 05:25:18;;;;;;;;;;;26.40;50.30;;;;;;4983229;28;19932;-68
2022/08/02 05:27:44;;;;;;;;;;;26.40;50.30;;;;;;4983732;28;20150;-67
2022/08/02 05:30:10;;;;;;;;;;;26.40;50.30;;;;;;4982474;28;20265;-67
2022/08/02 05:32:45;;;;;;;;;;;26.40;50.30;;;;;;4984912;28;19913;-70
2022/08/02 05:35:11;;;;;;;;;;;26.40;50.30;;;;;;4984194;28;19961;-68
2022/08/02 05:37:37;;;;;;;;;;;26.40;50.30;;;;;;4988913;28;20361;-67
2022/08/02 05:40:02;;;;;;;;;;;26.40;50.30;;;;;;4985287;28;20392;-68
2022/08/02 05:42:31;;;;;;;;;;;26.40;50.30;;;;;;4981462;28;20025;-68
2022/08/02 05:44:57;;;;;;;;;;;26.30;50.20;;;;;;4982371;28;19918;-69
2022/08/02 05:47:23;;;;;;;;;;;26.40;50.30;;;;;;4983849;28;20153;-70
2022/08/02 05:49:48;;;;;;;;;;;26.30;50.20;;;;;;4982907;28;20016;-69
2022/08/02 05:52:15;;;;;;;;;;;26.30;50.20;;;;;;4977945;28;20010;-68
2022/08/02 05:55:00;;;;;;;;;;;26.30;50.20;;;;;;4983869;28;20409;-68
2022/08/02 05:57:30;;;;;;;;;;;26.30;50.20;;;;;;4982513;28;20281;-67
2022/08/02 06:00:09;;;;;;;;;;;26.30;50.30;;;;;;4983130;28;19918;-68
2022/08/02 06:02:44;;;;;;;;;;;26.30;50.20;;;;;;4982248;28;19922;-69
2022/08/02 06:05:11;;;;;;;;;;;26.30;50.30;;;;;;4983294;28;19921;-67
2022/08/02 06:07:39;;;;;;;;;;;26.30;50.30;;;;;;4980176;28;20733;-68
2022/08/02 06:10:05;;;;;;;;;;;26.30;50.20;;;;;;4984469;28;19917;-68
2022/08/02 06:12:32;;;;;;;;;;;26.30;50.30;;;;;;4981662;28;19922;-68
2022/08/02 06:14:58;;;;;;;;;;;26.30;50.30;;;;;;4982350;28;19964;-68
2022/08/02 06:17:24;;;;;;;;;;;26.30;50.30;;;;;;4983343;28;20087;-69
2022/08/02 06:19:52;;;;;;;;;;;26.30;50.30;;;;;;4980945;28;19925;-67
2022/08/02 06:22:18;;;;;;;;;;;26.30;50.30;;;;;;4987519;28;19973;-68
2022/08/02 06:24:44;;;;;;;;;;;26.30;50.30;;;;;;4983473;28;19921;-68
2022/08/02 06:27:14;;;;;;;;;;;26.30;50.30;;;;;;4982407;28;19913;-68
2022/08/02 06:29:39;;;;;;;;;;;26.30;50.30;;;;;;4980462;28;19918;-68
2022/08/02 06:32:06;;;;;;;;;;;26.30;50.30;;;;;;4982528;28;19925;-67
2022/08/02 06:34:34;;;;;;;;;;;26.30;50.30;;;;;;4981274;28;20305;-68
2022/08/02 06:37:05;;;;;;;;;;;26.30;50.30;;;;;;4976229;28;19925;-67
2022/08/02 06:39:33;;;;;;;;;;;26.30;50.30;;;;;;4986221;28;19921;-67
2022/08/02 06:42:01;;;;;;;;;;;26.30;50.30;;;;;;4979882;28;19941;-67
2022/08/02 06:44:27;;;;;;;;;;;26.20;50.20;;;;;;4980581;28;20463;-71
2022/08/02 06:46:53;;;;;;;;;;;26.20;50.80;;;;;;4980418;28;19997;-68
2022/08/02 06:49:19;;;;;;;;;;;26.10;52.90;;;;;;4979594;28;19913;-70
2022/08/02 06:51:44;;;;;;;;;;;25.90;52.80;;;;;;4980279;28;19949;-68
2022/08/02 06:54:10;;;;;;;;;;;25.90;53.30;;;;;;4981947;28;19916;-69
2022/08/02 06:56:35;;;;;;;;;;;25.80;53.90;;;;;;4979038;28;19932;-69
2022/08/02 06:59:01;;;;;;;;;;;25.70;54.50;;;;;;4978082;28;20278;-68
2022/08/02 07:01:26;;;;;;;;;;;25.70;54.40;;;;;;4989612;28;20008;-70
2022/08/02 07:03:52;;;;;;;;;;;25.70;54.50;;;;;;4981510;28;19910;-67
2022/08/02 07:06:18;;;;;;;;;;;25.60;54.50;;;;;;4981924;28;19976;-66
2022/08/02 07:08:43;;;;;;;;;;;25.60;54.60;;;;;;4979568;28;19929;-67
2022/08/02 07:11:09;;;;;;;;;;;25.60;54.40;;;;;;4982605;28;20028;-67
2022/08/02 07:13:34;;;;;;;;;;;25.60;54.90;;;;;;4981441;28;20185;-67
2022/08/02 07:16:01;;;;;;;;;;;25.60;55.10;;;;;;4993055;28;20277;-68
2022/08/02 07:18:26;;;;;;;;;;;25.60;55.10;;;;;;4981320;28;20155;-68
2022/08/02 07:20:52;;;;;;;;;;;25.50;55.20;;;;;;4979457;28;19914;-68
2022/08/02 07:23:18;;;;;;;;;;;25.50;55.40;;;;;;4977159;28;19929;-67
2022/08/02 07:25:44;;;;;;;;;;;25.50;55.20;;;;;;4981063;28;19918;-69
2022/08/02 07:28:10;;;;;;;;;;;25.50;55.10;;;;;;4978637;28;20293;-68
2022/08/02 07:30:36;;;;;;;;;;;25.50;55.00;;;;;;4977539;28;19933;-69
2022/08/02 07:33:02;;;;;;;;;;;25.50;54.90;;;;;;4979794;28;19924;-67
2022/08/02 07:35:27;;;;;;;;;;;25.50;54.80;;;;;;4979960;28;19929;-67
2022/08/02 07:37:53;;;;;;;;;;;25.60;54.70;;;;;;4991509;28;20042;-68
2022/08/02 07:40:19;;;;;;;;;;;25.60;54.50;;;;;;4979500;28;19922;-67
2022/08/02 07:42:44;;;;;;;;;;;25.60;54.40;;;;;;4978630;28;19945;-68
2022/08/02 07:45:11;;;;;;;;;;;25.60;54.20;;;;;;4979149;28;19968;-69
2022/08/02 07:47:38;;;;;;;;;;;25.60;54.00;;;;;;4981539;28;20475;-69
2022/08/02 07:50:04;;;;;;;;;;;25.60;54.00;;;;;;4979556;28;19918;-67
2022/08/02 07:52:30;;;;;;;;;;;25.70;53.90;;;;;;4979155;28;19918;-68
2022/08/02 07:54:55;;;;;;;;;;;25.70;53.80;;;;;;4979957;28;19921;-68
2022/08/02 07:57:21;;;;;;;;;;;25.70;53.70;;;;;;4978193;28;20000;-67
2022/08/02 07:59:46;;;;;;;;;;;25.70;53.80;;;;;;4979589;28;19949;-69
2022/08/02 08:02:13;;;;;;;;;;;25.70;53.60;;;;;;4980813;28;20282;-69
2022/08/02 08:04:39;;;;;;;;;;;25.70;53.70;;;;;;4985689;28;19953;-68
2022/08/02 08:07:08;;;;;;;;;;;25.70;53.60;;;;;;4976686;28;19972;-70
2022/08/02 08:09:38;;;;;;;;;;;25.70;53.60;;;;;;4977738;28;20098;-68
2022/08/02 08:12:04;;;;;;;;;;;25.70;53.60;;;;;;4980560;28;19918;-68
2022/08/02 08:14:30;;;;;;;;;;;25.70;53.60;;;;;;4978656;28;20384;-68
2022/08/02 08:16:55;;;;;;;;;;;25.70;53.60;;;;;;4982699;28;19921;-69
2022/08/02 08:19:21;;;;;;;;;;;25.70;53.70;;;;;;4978858;28;20018;-69
2022/08/02 08:21:47;;;;;;;;;;;25.70;53.90;;;;;;4978300;28;20035;-67
2022/08/02 08:24:12;;;;;;;;;;;25.70;54.30;;;;;;4978600;28;20057;-67
2022/08/02 08:26:38;;;;;;;;;;;25.70;54.00;;;;;;4979599;28;19921;-67
2022/08/02 08:29:06;;;;;;;;;;;25.70;53.90;;;;;;4977593;28;20393;-67
2022/08/02 08:31:31;;;;;;;;;;;25.70;53.90;;;;;;4989684;28;19933;-68
2022/08/02 08:33:57;;;;;;;;;;;25.70;53.90;;;;;;4977606;28;19917;-68
2022/08/02 08:36:22;;;;;;;;;;;25.70;53.80;;;;;;4980981;28;19922;-68
2022/08/02 08:38:49;;;;;;;;;;;25.80;53.80;;;;;;4978567;28;19922;-69
2022/08/02 08:41:17;;;;;;;;;;;25.70;53.70;;;;;;4976793;28;20044;-67
2022/08/02 08:43:44;;;;;;;;;;;25.80;53.80;;;;;;4980586;28;19925;-68
2022/08/02 08:46:10;;;;;;;;;;;25.80;53.70;;;;;;4980726;28;19921;-69
2022/08/02 08:48:39;;;;;;;;;;;25.80;53.80;;;;;;4979795;28;19918;-70
2022/08/02 08:51:15;;;;;;;;;;;25.80;53.70;;;;;;4986052;28;19917;-67
2022/08/02 08:53:46;;;;;;;;;;;25.80;53.70;;;;;;4978279;28;19920;-69
2022/08/02 08:56:13;;;;;;;;;;;25.70;53.60;;;;;;4977895;28;20459;-68
2022/08/02 08:58:39;;;;;;;;;;;25.80;53.70;;;;;;4978107;28;19957;-68
2022/08/02 09:01:04;;;;;;;;;;;25.70;53.60;;;;;;4977908;28;19968;-67
2022/08/02 09:03:30;;;;;;;;;;;25.80;53.70;;;;;;4978245;28;19925;-68
2022/08/02 09:05:59;;;;;;;;;;;25.80;53.70;;;;;;4981594;28;20341;-68
2022/08/02 09:08:24;;;;;;;;;;;25.70;53.50;;;;;;4980332;28;20000;-67
2022/08/02 09:10:50;;;;;;;;;;;25.80;53.50;;;;;;4979033;28;21214;-68
2022/08/02 09:13:19;;;;;;;;;;;25.80;53.40;;;;;;4980998;28;19914;-67
2022/08/02 09:15:54;;;;;;;;;;;25.80;53.30;;;;;;4980377;28;19933;-68
2022/08/02 09:18:20;;;;;;;;;;;25.80;53.20;;;;;;4982723;28;20273;-67
2022/08/02 09:20:54;;;;;;;;;;;25.80;53.30;;;;;;4982199;28;19918;-68
2022/08/02 09:23:21;;;;;;;;;;;25.80;53.30;;;;;;4978422;28;19980;-68
2022/08/02 09:25:57;;;;;;;;;;;25.80;53.20;;;;;;4982175;28;19918;-68
2022/08/02 09:28:27;;;;;;;;;;;25.80;53.30;;;;;;4980886;28;19991;-66
2022/08/02 09:30:55;;;;;;;;;;;25.80;53.20;;;;;;4976349;28;20025;-65
2022/08/02 09:33:24;;;;;;;;;;;25.80;53.20;;;;;;4978012;28;19922;-64
2022/08/02 09:35:57;;;;;;;;;;;25.80;53.10;;;;;;4980417;28;19979;-65
2022/08/02 09:38:23;;;;;;;;;;;25.80;53.10;;;;;;4979273;28;20346;-65
2022/08/02 09:40:48;;;;;;;;;;;25.80;53.10;;;;;;4981115;28;19922;-66
2022/08/02 09:43:15;;;;;;;;;;;25.80;53.00;;;;;;4976878;28;19985;-65
2022/08/02 09:45:41;;;;;;;;;;;25.90;53.00;;;;;;4982928;28;19921;-65
2022/08/02 09:48:07;;;;;;;;;;;25.90;52.90;;;;;;4993523;28;20369;-65
2022/08/02 09:50:40;;;;;;;;;;;25.90;52.90;;;;;;4983173;28;19918;-65
2022/08/02 09:53:10;;;;;;;;;;;25.90;52.80;;;;;;4981833;28;20444;-65
2022/08/02 09:55:36;;;;;;;;;;;25.80;52.80;;;;;;4982462;28;20338;-66
2022/08/02 09:58:17;;;;;;;;;;;25.80;52.60;;;;;;4990615;28;19918;-65
2022/08/02 10:00:52;;;;;;;;;;;25.90;52.50;;;;;;4983370;28;19925;-65
2022/08/02 10:03:18;;;;;;;;;;;25.90;52.50;;;;;;4985682;28;19972;-67
2022/08/02 10:05:46;;;;;;;;;;;25.90;52.40;;;;;;4982872;28;20027;-65
2022/08/02 10:08:12;;;;;;;;;;;25.90;52.40;;;;;;4982347;28;19993;-66
2022/08/02 10:10:38;;;;;;;;;;;25.90;52.40;;;;;;4981127;28;20320;-67
2022/08/02 10:13:04;;;;;;;;;;;25.90;52.20;;;;;;4985006;28;19918;-68
2022/08/02 10:15:29;;;;;;;;;;;25.90;52.00;;;;;;4981125;28;19921;-70
2022/08/02 10:17:55;;;;;;;;;;;25.90;51.90;;;;;;4980412;28;19918;-69
2022/08/02 10:20:21;;;;;;;;;;;25.90;52.00;;;;;;4988522;28;19918;-69
2022/08/02 10:22:46;;;;;;;;;;;25.90;51.90;;;;;;4977213;28;19925;-68
2022/08/02 10:25:12;;;;;;;;;;;25.90;51.90;;;;;;4979164;28;19921;-68
2022/08/02 10:27:38;;;;;;;;;;;25.90;51.90;;;;;;4982259;28;19922;-69
2022/08/02 10:30:03;;;;;;;;;;;25.90;51.90;;;;;;4982283;28;19914;-69
2022/08/02 10:32:32;;;;;;;;;;;25.90;52.00;;;;;;4982276;28;20358;-69
2022/08/02 10:34:59;;;;;;;;;;;25.90;52.00;;;;;;4979128;28;20783;-69
2022/08/02 10:37:30;;;;;;;;;;;25.90;52.10;;;;;;4979751;28;19920;-69
2022/08/02 10:39:56;;;;;;;;;;;25.90;52.20;;;;;;4979552;28;19961;-68
2022/08/02 10:42:42;;;;;;;;;;;25.90;52.20;;;;;;4991142;28;20341;-69
2022/08/02 10:45:09;;;;;;;;;;;25.90;52.40;;;;;;4982002;28;19925;-68
2022/08/02 10:47:34;;;;;;;;;;;25.90;52.50;;;;;;4976766;28;19928;-68
2022/08/02 10:50:00;;;;;;;;;;;25.90;52.60;;;;;;4982881;28;19913;-67
2022/08/02 10:52:31;;;;;;;;;;;25.90;52.80;;;;;;4980636;28;19924;-68
2022/08/02 10:55:10;;;;;;;;;;;26.00;52.70;;;;;;4984075;28;19918;-70
2022/08/02 10:57:35;;;;;;;;;;;26.00;52.70;;;;;;4984665;28;20055;-69
2022/08/02 11:00:08;;;;;;;;;;;26.00;52.60;;;;;;4977091;28;20400;-69
2022/08/02 11:02:42;;;;;;;;;;;26.00;52.40;;;;;;4976848;28;20673;-68
2022/08/02 11:05:07;;;;;;;;;;;26.00;52.50;;;;;;4974697;28;20351;-67
2022/08/02 11:07:38;;;;;;;;;;;26.00;52.40;;;;;;4977899;28;20125;-68
2022/08/02 11:10:39;;;;;;;;;;;25.90;52.20;;;;;;4979707;28;19980;-67
2022/08/02 11:13:14;;;;;;;;;;;26.00;52.30;;;;;;4958986;28;19940;-68
2022/08/02 11:15:48;;;;;;;;;;;26.00;52.60;;;;;;4977134;28;19922;-67
2022/08/02 11:18:13;;;;;;;;;;;26.00;52.60;;;;;;4982287;28;23959;-67
2022/08/02 11:20:39;;;;;;;;;;;26.00;52.50;;;;;;4983556;28;19922;-69
2022/08/02 11:23:23;;;;;;;;;;;26.00;52.20;;;;;;4981329;28;19928;-67
2022/08/02 11:25:50;;;;;;;;;;;26.00;52.20;;;;;;4980243;28;20024;-69
2022/08/02 11:28:16;;;;;;;;;;;26.00;52.20;;;;;;4982151;28;19921;-68
2022/08/02 11:30:42;;;;;;;;;;;26.00;52.20;;;;;;4982297;28;19940;-67
2022/08/02 11:33:07;;;;;;;;;;;26.00;52.00;;;;;;4983295;28;19978;-66
2022/08/02 11:35:34;;;;;;;;;;;26.00;52.10;;;;;;4979681;28;20323;-64
2022/08/02 11:38:11;;;;;;;;;;;26.00;52.00;;;;;;4982560;28;20014;-64
2022/08/02 11:40:37;;;;;;;;;;;26.00;52.00;;;;;;4981630;28;19940;-66
2022/08/02 11:43:02;;;;;;;;;;;26.10;52.20;;;;;;4983105;28;20557;-64
2022/08/02 11:45:28;;;;;;;;;;;26.10;52.10;;;;;;4982012;28;19921;-66
2022/08/02 11:47:54;;;;;;;;;;;26.10;52.00;;;;;;4998869;28;20028;-64
2022/08/02 11:50:23;;;;;;;;;;;26.00;51.90;;;;;;4982435;28;19919;-67
2022/08/02 11:52:49;;;;;;;;;;;26.00;51.80;;;;;;4981686;28;20065;-67
2022/08/02 11:55:15;;;;;;;;;;;26.00;51.90;;;;;;4982376;28;20361;-69
2022/08/02 11:57:40;;;;;;;;;;;26.00;52.00;;;;;;4981810;28;19946;-69
2022/08/02 12:00:13;;;;;;;;;;;26.10;52.00;;;;;;4982250;28;21134;-68
2022/08/02 12:02:43;;;;;;;;;;;26.10;51.90;;;;;;4980055;28;19920;-68
2022/08/02 12:05:14;;;;;;;;;;;26.10;51.90;;;;;;4971931;28;19921;-68
2022/08/02 12:07:40;;;;;;;;;;;26.10;52.00;;;;;;4977547;28;20436;-66
2022/08/02 12:10:07;;;;;;;;;;;26.10;51.90;;;;;;4984035;28;20047;-69
2022/08/02 12:12:33;;;;;;;;;;;26.10;51.90;;;;;;4985095;28;20016;-67
2022/08/02 12:14:58;;;;;;;;;;;26.10;52.00;;;;;;4975321;28;20636;-69
2022/08/02 12:20:12;;;;;;;;;;;26.10;51.90;;;;;;4982527;28;19921;-67
2022/08/02 12:22:38;;;;;;;;;;;26.10;51.90;;;;;;4982488;28;20015;-67
2022/08/02 12:25:21;;;;;;;;;;;26.10;51.90;;;;;;4983663;28;20476;-68
2022/08/02 12:27:49;;;;;;;;;;;26.10;51.90;;;;;;4990235;28;20348;-67
2022/08/02 12:30:16;;;;;;;;;;;26.10;51.90;;;;;;4969855;28;19945;-68
2022/08/02 12:32:43;;;;;;;;;;;26.10;51.90;;;;;;4978466;28;20004;-67
2022/08/02 12:35:10;;;;;;;;;;;26.10;51.80;;;;;;4988479;28;19922;-69
2022/08/02 12:37:37;;;;;;;;;;;26.20;52.00;;;;;;4980501;28;20306;-64
2022/08/02 12:40:23;;;;;;;;;;;26.20;51.90;;;;;;4964787;28;20044;-64
2022/08/02 12:42:50;;;;;;;;;;;26.20;52.00;;;;;;4978655;28;20289;-66
2022/08/02 12:45:17;;;;;;;;;;;26.20;52.00;;;;;;4974051;28;19921;-64
2022/08/02 12:47:45;;;;;;;;;;;26.20;51.90;;;;;;4983424;28;20401;-69
2022/08/02 12:50:13;;;;;;;;;;;26.20;51.90;;;;;;4980317;28;19922;-67
2022/08/02 12:52:39;;;;;;;;;;;26.20;51.90;;;;;;4975659;28;20313;-67
2022/08/02 12:55:17;;;;;;;;;;;26.20;51.90;;;;;;4982849;28;19920;-67
2022/08/02 12:57:55;;;;;;;;;;;26.20;51.90;;;;;;4983828;28;19914;-68
2022/08/02 13:00:35;;;;;;;;;;;26.20;51.90;;;;;;4981658;28;19917;-68
2022/08/02 13:03:01;;;;;;;;;;;26.20;51.90;;;;;;4982957;28;19917;-67
2022/08/02 13:05:28;;;;;;;;;;;26.20;51.80;;;;;;4983061;28;20381;-70
2022/08/02 13:07:55;;;;;;;;;;;26.20;51.80;;;;;;4983661;28;19924;-66
2022/08/02 13:10:21;;;;;;;;;;;26.20;51.80;;;;;;4983603;28;19924;-68
2022/08/02 13:12:47;;;;;;;;;;;26.20;51.80;;;;;;4983326;28;19918;-68
2022/08/02 13:15:13;;;;;;;;;;;26.20;51.80;;;;;;4982713;28;19980;-70
2022/08/02 13:17:38;;;;;;;;;;;26.20;51.80;;;;;;4986492;28;19932;-66
2022/08/02 13:20:05;;;;;;;;;;;26.20;51.80;;;;;;4992432;28;19913;-67
2022/08/02 13:22:31;;;;;;;;;;;26.20;51.80;;;;;;4984825;28;19972;-68
2022/08/02 13:24:56;;;;;;;;;;;26.20;51.80;;;;;;4980430;28;20951;-67
2022/08/02 13:27:23;;;;;;;;;;;26.20;51.70;;;;;;4986807;28;19922;-67
2022/08/02 13:29:49;;;;;;;;;;;26.20;51.80;;;;;;4983454;28;22047;-67
2022/08/02 13:32:15;;;;;;;;;;;26.20;51.80;;;;;;4983573;28;19926;-66
2022/08/02 13:34:42;;;;;;;;;;;26.20;51.70;;;;;;4988371;28;19967;-69
2022/08/02 13:37:08;;;;;;;;;;;26.20;51.70;;;;;;4987668;28;19917;-69
2022/08/02 13:39:33;;;;;;;;;;;26.20;51.70;;;;;;4983658;28;20005;-67
2022/08/02 13:41:59;;;;;;;;;;;26.30;51.70;;;;;;4989525;28;20025;-67
2022/08/02 13:44:25;;;;;;;;;;;26.20;51.70;;;;;;4988377;28;19939;-70
2022/08/02 13:46:50;;;;;;;;;;;26.20;51.70;;;;;;4985668;28;19983;-68
2022/08/02 13:49:16;;;;;;;;;;;26.30;51.80;;;;;;4984878;28;20000;-67
2022/08/02 13:51:41;;;;;;;;;;;26.30;51.70;;;;;;4980350;28;19976;-67
2022/08/02 13:54:07;;;;;;;;;;;26.30;51.70;;;;;;4986320;28;20752;-67
2022/08/02 13:56:32;;;;;;;;;;;26.30;51.70;;;;;;4991086;28;20020;-67
2022/08/02 13:58:58;;;;;;;;;;;26.30;51.70;;;;;;4986996;28;19922;-67
2022/08/02 14:01:24;;;;;;;;;;;26.30;51.70;;;;;;4981201;28;20032;-68
2022/08/02 14:03:50;;;;;;;;;;;26.30;51.70;;;;;;4984505;28;20363;-68
2022/08/02 14:06:16;;;;;;;;;;;26.30;51.70;;;;;;4984804;28;20017;-67
2022/08/02 14:08:41;;;;;;;;;;;26.30;51.70;;;;;;4983037;28;20477;-67
2022/08/02 14:11:07;;;;;;;;;;;26.30;51.70;;;;;;4993121;28;19917;-69
2022/08/02 14:13:32;;;;;;;;;;;26.30;51.70;;;;;;4985223;28;19959;-68
2022/08/02 14:15:58;;;;;;;;;;;26.30;51.70;;;;;;4984355;28;19932;-68
2022/08/02 14:18:24;;;;;;;;;;;26.30;51.70;;;;;;4992714;28;19960;-67
2022/08/02 14:20:50;;;;;;;;;;;26.30;51.60;;;;;;4984746;28;20000;-67
2022/08/02 14:23:15;;;;;;;;;;;26.30;51.60;;;;;;4981698;28;19917;-68